MX-0395 weather

CLOSED Palenque Old Airport
Palenque, Chiapas, Mexico

Public forecast

Using degrees Celsius for public forecast. Weather courtesy of forecast.io.

METAR (pilot weather report)

Closest report is Palenque International Airport, 1.8 nm (3.3 km) W. Retrieved 2019/06/25 16:41 UTC (14 minutes ago):

MMPQ 251641Z 07008KT 6SM BKN200 31/25 A2978 RMK 8/008 HZY

TAF (pilot weather forecast)

Forecast is more than 6 hours old.

Closest forecast is Palenque International Airport, 1.8 nm (3.3 km) W. Retrieved 2019/06/25 06:06 UTC (11 hours ago):

TAF MMPQ 250506Z 2506/2606 09010KT P6SM SKC FM251800 09020KT P6SM SCT030 BKN100 BKN250 FM260500 09010KT P6SM SCT030 SCT250